Halibut Cove, Alaska
Current Conditions -  °F | °C
As of 11:49 AM on Monday 22 Dec 2014 (Local Time) from PAHO Reporting Station
Light Snow Light Snow  
Wind Chill: 30°   Ceiling: 800
Heat Index: 34°   Visibility: 1mi
Dew Point: 30°   Wind: 5mph
Humidity: 87%   Direction: 20°NNE
Pressure: 29.73"   Gusts: NA
Location:  59.7153°N, 150.773°W
Report Text: PAHO 222049Z 02004KT 1SM -SN BR BKN008 OVC016 01/M01 A2973 RMK AO2 P0006
Loading
Personal Weather Stations






























Interactive Weather Map New forecast layout! Learn more

10-Day Weather Forecast

Advertisements
Track Severe Weather on mobile